sensor_id;sensor_type;location;lat;lon;timestamp;pressure;altitude;pressure_sealevel;temperature;humidity
77517;BME280;68414;53.946;27.634;2023-03-17T00:00:43;99590.421875;;;1.370000;60.145508
77517;BME280;68414;53.946;27.634;2023-03-17T00:01:43;99592.421875;;;1.420000;60.472656
77517;BME280;68414;53.946;27.634;2023-03-17T00:02:43;99597.453125;;;1.490000;60.130859
77517;BME280;68414;53.946;27.634;2023-03-17T00:03:43;99597.328125;;;1.490000;60.196289
77517;BME280;68414;53.946;27.634;2023-03-17T00:04:43;99598.093750;;;1.540000;60.553711
77517;BME280;68414;53.946;27.634;2023-03-17T00:05:43;99599.750000;;;1.660000;59.526367
77517;BME280;68414;53.946;27.634;2023-03-17T00:06:43;99598.593750;;;1.800000;59.174805
77517;BME280;68414;53.946;27.634;2023-03-17T00:07:44;99600.078125;;;1.950000;58.469727
77517;BME280;68414;53.946;27.634;2023-03-17T00:08:43;99602.562500;;;2.020000;58.074219
77517;BME280;68414;53.946;27.634;2023-03-17T00:09:43;99600.023438;;;2.060000;58.090820
77517;BME280;68414;53.946;27.634;2023-03-17T00:10:43;99599.695312;;;2.110000;57.393555
77517;BME280;68414;53.946;27.634;2023-03-17T00:11:43;99599.195312;;;2.150000;57.272461
77517;BME280;68414;53.946;27.634;2023-03-17T00:12:43;99599.578125;;;2.160000;57.176758
77517;BME280;68414;53.946;27.634;2023-03-17T00:13:43;99599.445312;;;2.100000;57.456055
77517;BME280;68414;53.946;27.634;2023-03-17T00:14:43;99598.750000;;;2.050000;57.513672
77517;BME280;68414;53.946;27.634;2023-03-17T00:15:50;99599.437500;;;2.050000;57.087891
77517;BME280;68414;53.946;27.634;2023-03-17T00:16:44;99598.929688;;;2.030000;56.957031
77517;BME280;68414;53.946;27.634;2023-03-17T00:17:43;99598.859375;;;2.030000;57.233398
77517;BME280;68414;53.946;27.634;2023-03-17T00:18:43;99597.671875;;;2.060000;57.536133
77517;BME280;68414;53.946;27.634;2023-03-17T00:19:43;99600.546875;;;2.050000;57.513672
77517;BME280;68414;53.946;27.634;2023-03-17T00:20:43;99602.429688;;;1.800000;58.525391
77517;BME280;68414;53.946;27.634;2023-03-17T00:21:43;99602.781250;;;1.640000;58.704102
77517;BME280;68414;53.946;27.634;2023-03-17T00:22:43;99604.359375;;;1.500000;58.951172
77517;BME280;68414;53.946;27.634;2023-03-17T00:23:43;99602.890625;;;1.380000;59.254883
77517;BME280;68414;53.946;27.634;2023-03-17T00:24:43;99608.335938;;;1.300000;59.656250
77517;BME280;68414;53.946;27.634;2023-03-17T00:25:43;99607.609375;;;1.230000;59.625977
77517;BME280;68414;53.946;27.634;2023-03-17T00:26:43;99612.687500;;;1.300000;59.870117
77517;BME280;68414;53.946;27.634;2023-03-17T00:27:43;99612.296875;;;1.310000;59.882812
77517;BME280;68414;53.946;27.634;2023-03-17T00:28:43;99615.640625;;;1.200000;59.654297
77517;BME280;68414;53.946;27.634;2023-03-17T00:29:43;99613.562500;;;1.120000;60.173828
77517;BME280;68414;53.946;27.634;2023-03-17T00:30:43;99618.812500;;;1.070000;60.730469
77517;BME280;68414;53.946;27.634;2023-03-17T00:31:43;99619.906250;;;1.040000;60.779297
77517;BME280;68414;53.946;27.634;2023-03-17T00:32:43;99619.890625;;;0.990000;60.729492
77517;BME280;68414;53.946;27.634;2023-03-17T00:33:43;99622.359375;;;0.980000;60.654297
77517;BME280;68414;53.946;27.634;2023-03-17T00:34:43;99621.265625;;;0.980000;60.739258
77517;BME280;68414;53.946;27.634;2023-03-17T00:35:43;99623.578125;;;1.000000;60.646484
77517;BME280;68414;53.946;27.634;2023-03-17T00:36:45;99624.593750;;;0.980000;60.536133
77517;BME280;68414;53.946;27.634;2023-03-17T00:37:43;99622.976562;;;0.920000;60.582031
77517;BME280;68414;53.946;27.634;2023-03-17T00:38:43;99625.359375;;;0.910000;60.886719
77517;BME280;68414;53.946;27.634;2023-03-17T00:39:43;99626.250000;;;0.860000;60.807617
77517;BME280;68414;53.946;27.634;2023-03-17T00:40:43;99626.062500;;;0.850000;61.006836
77517;BME280;68414;53.946;27.634;2023-03-17T00:41:43;99625.093750;;;0.880000;61.213867
77517;BME280;68414;53.946;27.634;2023-03-17T00:42:43;99626.500000;;;0.990000;61.250000
77517;BME280;68414;53.946;27.634;2023-03-17T00:43:43;99628.812500;;;1.150000;60.955078
77517;BME280;68414;53.946;27.634;2023-03-17T00:44:43;99626.031250;;;1.340000;60.237305
77517;BME280;68414;53.946;27.634;2023-03-17T00:45:43;99625.539062;;;1.480000;59.693359
77517;BME280;68414;53.946;27.634;2023-03-17T00:46:43;99627.929688;;;1.600000;58.868164
77517;BME280;68414;53.946;27.634;2023-03-17T00:47:43;99628.250000;;;1.670000;58.644531
77517;BME280;68414;53.946;27.634;2023-03-17T00:48:43;99626.750000;;;1.750000;58.155273
77517;BME280;68414;53.946;27.634;2023-03-17T00:49:43;99627.492188;;;1.800000;58.055664
77517;BME280;68414;53.946;27.634;2023-03-17T00:50:44;99630.937500;;;1.880000;57.670898
77517;BME280;68414;53.946;27.634;2023-03-17T00:51:43;99627.796875;;;1.930000;57.368164
77517;BME280;68414;53.946;27.634;2023-03-17T00:52:43;99627.484375;;;1.980000;57.152344
77517;BME280;68414;53.946;27.634;2023-03-17T00:53:43;99630.671875;;;2.040000;56.734375
77517;BME280;68414;53.946;27.634;2023-03-17T00:54:43;99632.062500;;;2.070000;56.515625
77517;BME280;68414;53.946;27.634;2023-03-17T00:55:43;99630.929688;;;2.090000;56.750977
77517;BME280;68414;53.946;27.634;2023-03-17T00:56:45;99628.601562;;;2.100000;56.476562
77517;BME280;68414;53.946;27.634;2023-03-17T00:57:43;99632.203125;;;2.140000;56.469727
77517;BME280;68414;53.946;27.634;2023-03-17T00:58:43;99630.570312;;;2.140000;56.192383
77517;BME280;68414;53.946;27.634;2023-03-17T00:59:43;99629.992188;;;2.140000;56.405273
77517;BME280;68414;53.946;27.634;2023-03-17T01:00:43;99631.609375;;;2.160000;56.035156
77517;BME280;68414;53.946;27.634;2023-03-17T01:01:43;99632.773438;;;2.200000;56.073242
77517;BME280;68414;53.946;27.634;2023-03-17T01:02:43;99632.046875;;;2.210000;55.830078
77517;BME280;68414;53.946;27.634;2023-03-17T01:03:43;99630.078125;;;2.220000;55.990234
77517;BME280;68414;53.946;27.634;2023-03-17T01:04:43;99630.625000;;;2.220000;55.458008
77517;BME280;68414;53.946;27.634;2023-03-17T01:05:43;99633.515625;;;2.150000;55.608398
77517;BME280;68414;53.946;27.634;2023-03-17T01:06:43;99633.781250;;;2.050000;56.576172
77517;BME280;68414;53.946;27.634;2023-03-17T01:07:43;99634.460938;;;1.930000;56.431641
77517;BME280;68414;53.946;27.634;2023-03-17T01:08:43;99636.078125;;;1.740000;57.960938
77517;BME280;68414;53.946;27.634;2023-03-17T01:09:43;99637.265625;;;1.760000;57.890625
77517;BME280;68414;53.946;27.634;2023-03-17T01:10:43;99635.226562;;;1.820000;57.569336
77517;BME280;68414;53.946;27.634;2023-03-17T01:11:43;99639.109375;;;1.900000;57.121094
77517;BME280;68414;53.946;27.634;2023-03-17T01:12:43;99636.921875;;;2.000000;56.569336
77517;BME280;68414;53.946;27.634;2023-03-17T01:13:43;99640.546875;;;2.090000;56.208008
77517;BME280;68414;53.946;27.634;2023-03-17T01:14:43;99642.187500;;;2.130000;56.032227
77517;BME280;68414;53.946;27.634;2023-03-17T01:15:44;99638.867188;;;2.180000;55.846680
77517;BME280;68414;53.946;27.634;2023-03-17T01:16:43;99640.468750;;;2.210000;55.594727
77517;BME280;68414;53.946;27.634;2023-03-17T01:17:43;99645.054688;;;2.210000;55.231445
77517;BME280;68414;53.946;27.634;2023-03-17T01:18:43;99641.265625;;;2.070000;56.002930
77517;BME280;68414;53.946;27.634;2023-03-17T01:19:43;99640.828125;;;2.070000;56.098633
77517;BME280;68414;53.946;27.634;2023-03-17T01:20:43;99642.343750;;;2.030000;56.103516
77517;BME280;68414;53.946;27.634;2023-03-17T01:21:43;99646.343750;;;1.860000;57.041016
77517;BME280;68414;53.946;27.634;2023-03-17T01:22:43;99649.203125;;;1.900000;57.131836
77517;BME280;68414;53.946;27.634;2023-03-17T01:23:43;99648.460938;;;1.870000;56.925781
77517;BME280;68414;53.946;27.634;2023-03-17T01:24:43;99653.289062;;;1.970000;56.340820
77517;BME280;68414;53.946;27.634;2023-03-17T01:25:43;99652.000000;;;2.030000;56.158203
77517;BME280;68414;53.946;27.634;2023-03-17T01:26:43;99650.687500;;;2.100000;55.847656
77517;BME280;68414;53.946;27.634;2023-03-17T01:27:43;99650.453125;;;2.170000;55.781250
77517;BME280;68414;53.946;27.634;2023-03-17T01:28:43;99647.843750;;;2.210000;55.478516
77517;BME280;68414;53.946;27.634;2023-03-17T01:29:43;99651.531250;;;2.270000;55.261719
77517;BME280;68414;53.946;27.634;2023-03-17T01:30:43;99652.460938;;;2.280000;55.047852
77517;BME280;68414;53.946;27.634;2023-03-17T01:31:43;99653.820312;;;2.280000;55.058594
77517;BME280;68414;53.946;27.634;2023-03-17T01:32:43;99653.968750;;;2.190000;55.282227
77517;BME280;68414;53.946;27.634;2023-03-17T01:33:43;99656.937500;;;2.170000;55.492188
77517;BME280;68414;53.946;27.634;2023-03-17T01:34:43;99656.828125;;;2.190000;55.369141
77517;BME280;68414;53.946;27.634;2023-03-17T01:35:43;99659.140625;;;2.260000;55.079102
77517;BME280;68414;53.946;27.634;2023-03-17T01:36:43;99665.890625;;;2.280000;55.037109
77517;BME280;68414;53.946;27.634;2023-03-17T01:37:43;99663.046875;;;2.260000;54.908203
77517;BME280;68414;53.946;27.634;2023-03-17T01:38:43;99663.851562;;;2.150000;55.341797
77517;BME280;68414;53.946;27.634;2023-03-17T01:39:43;99665.125000;;;2.140000;55.510742
77517;BME280;68414;53.946;27.634;2023-03-17T01:40:44;99665.078125;;;2.090000;55.354492
77517;BME280;68414;53.946;27.634;2023-03-17T01:41:43;99667.585938;;;2.020000;55.623047
77517;BME280;68414;53.946;27.634;2023-03-17T01:42:44;99667.875000;;;2.010000;55.962891
77517;BME280;68414;53.946;27.634;2023-03-17T01:43:43;99668.609375;;;2.020000;55.559570
77517;BME280;68414;53.946;27.634;2023-03-17T01:46:43;99671.421875;;;2.150000;55.661133
77517;BME280;68414;53.946;27.634;2023-03-17T01:47:43;99671.359375;;;2.180000;55.409180
77517;BME280;68414;53.946;27.634;2023-03-17T01:48:48;99672.390625;;;2.190000;55.122070
77517;BME280;68414;53.946;27.634;2023-03-17T01:49:43;99669.960938;;;2.210000;54.847656
77517;BME280;68414;53.946;27.634;2023-03-17T01:50:43;99671.820312;;;2.200000;54.676758
77517;BME280;68414;53.946;27.634;2023-03-17T01:52:43;99675.335938;;;2.190000;54.909180
77517;BME280;68414;53.946;27.634;2023-03-17T01:53:43;99677.531250;;;2.200000;54.750000
77517;BME280;68414;53.946;27.634;2023-03-17T01:55:43;99683.476562;;;2.140000;55.041992
77517;BME280;68414;53.946;27.634;2023-03-17T01:56:43;99682.398438;;;2.150000;54.849609
77517;BME280;68414;53.946;27.634;2023-03-17T01:57:47;99680.898438;;;2.110000;55.346680
77517;BME280;68414;53.946;27.634;2023-03-17T01:58:43;99687.078125;;;2.050000;55.626953
77517;BME280;68414;53.946;27.634;2023-03-17T01:59:48;99688.867188;;;2.040000;55.082031
77517;BME280;68414;53.946;27.634;2023-03-17T02:00:43;99688.515625;;;1.800000;56.426758
77517;BME280;68414;53.946;27.634;2023-03-17T02:01:43;99694.953125;;;1.690000;56.878906
77517;BME280;68414;53.946;27.634;2023-03-17T02:02:44;99699.187500;;;1.450000;57.370117
77517;BME280;68414;53.946;27.634;2023-03-17T02:03:43;99697.062500;;;1.300000;57.922852
77517;BME280;68414;53.946;27.634;2023-03-17T02:04:43;99693.921875;;;1.160000;58.999023
77517;BME280;68414;53.946;27.634;2023-03-17T02:05:43;99696.500000;;;1.140000;59.083008
77517;BME280;68414;53.946;27.634;2023-03-17T02:06:43;99697.843750;;;1.150000;59.137695
77517;BME280;68414;53.946;27.634;2023-03-17T02:07:43;99696.460938;;;1.130000;59.326172
77517;BME280;68414;53.946;27.634;2023-03-17T02:08:43;99697.226562;;;1.170000;59.119141
77517;BME280;68414;53.946;27.634;2023-03-17T02:09:43;99700.039062;;;1.330000;58.151367
77517;BME280;68414;53.946;27.634;2023-03-17T02:10:43;99701.101562;;;1.460000;57.529297
77517;BME280;68414;53.946;27.634;2023-03-17T02:11:43;99703.125000;;;1.600000;56.952148
77517;BME280;68414;53.946;27.634;2023-03-17T02:12:43;99706.164062;;;1.610000;56.912109
77517;BME280;68414;53.946;27.634;2023-03-17T02:13:43;99706.843750;;;1.510000;57.400391
77517;BME280;68414;53.946;27.634;2023-03-17T02:14:43;99710.328125;;;1.550000;56.903320
77517;BME280;68414;53.946;27.634;2023-03-17T02:15:44;99712.218750;;;1.540000;56.957031
77517;BME280;68414;53.946;27.634;2023-03-17T02:16:43;99713.679688;;;1.570000;56.512695
77517;BME280;68414;53.946;27.634;2023-03-17T02:17:43;99710.703125;;;1.460000;56.677734
77517;BME280;68414;53.946;27.634;2023-03-17T02:18:43;99711.390625;;;1.390000;56.862305
77517;BME280;68414;53.946;27.634;2023-03-17T02:19:43;99711.273438;;;1.290000;57.465820
77517;BME280;68414;53.946;27.634;2023-03-17T02:21:43;99715.976562;;;1.370000;58.592773
77517;BME280;68414;53.946;27.634;2023-03-17T02:22:43;99717.585938;;;1.330000;58.386719
77517;BME280;68414;53.946;27.634;2023-03-17T02:23:43;99714.015625;;;1.310000;58.436523
77517;BME280;68414;53.946;27.634;2023-03-17T02:24:43;99716.812500;;;1.340000;58.642578
77517;BME280;68414;53.946;27.634;2023-03-17T02:25:43;99717.460938;;;1.340000;58.429688
77517;BME280;68414;53.946;27.634;2023-03-17T02:26:43;99716.226562;;;1.200000;58.931641
77517;BME280;68414;53.946;27.634;2023-03-17T02:27:44;99715.265625;;;1.000000;59.083984
77517;BME280;68414;53.946;27.634;2023-03-17T02:28:43;99720.093750;;;0.870000;59.427734
77517;BME280;68414;53.946;27.634;2023-03-17T02:29:43;99722.484375;;;0.770000;59.647461
77517;BME280;68414;53.946;27.634;2023-03-17T02:30:43;99723.796875;;;0.700000;59.934570
77517;BME280;68414;53.946;27.634;2023-03-17T02:31:43;99725.132812;;;0.690000;59.742188
77517;BME280;68414;53.946;27.634;2023-03-17T02:32:43;99726.828125;;;0.690000;59.921875
77517;BME280;68414;53.946;27.634;2023-03-17T02:33:43;99727.578125;;;0.640000;59.905273
77517;BME280;68414;53.946;27.634;2023-03-17T02:34:43;99725.671875;;;0.590000;59.909180
77517;BME280;68414;53.946;27.634;2023-03-17T02:35:43;99728.492188;;;0.540000;60.251953
77517;BME280;68414;53.946;27.634;2023-03-17T02:36:43;99731.781250;;;0.500000;60.331055
77517;BME280;68414;53.946;27.634;2023-03-17T02:37:43;99728.000000;;;0.470000;60.379883
77517;BME280;68414;53.946;27.634;2023-03-17T02:38:43;99731.460938;;;0.460000;60.621094
77517;BME280;68414;53.946;27.634;2023-03-17T02:39:43;99734.242188;;;0.550000;61.059570
77517;BME280;68414;53.946;27.634;2023-03-17T02:40:43;99734.953125;;;0.660000;60.820312
77517;BME280;68414;53.946;27.634;2023-03-17T02:41:43;99737.187500;;;0.720000;60.957031
77517;BME280;68414;53.946;27.634;2023-03-17T02:42:43;99741.617188;;;0.770000;60.772461
77517;BME280;68414;53.946;27.634;2023-03-17T02:43:43;99735.484375;;;0.820000;60.216797
77517;BME280;68414;53.946;27.634;2023-03-17T02:44:43;99738.437500;;;0.740000;59.780273
77517;BME280;68414;53.946;27.634;2023-03-17T02:45:43;99737.664062;;;0.630000;59.891602
77517;BME280;68414;53.946;27.634;2023-03-17T02:46:43;99736.218750;;;0.540000;59.975586
77517;BME280;68414;53.946;27.634;2023-03-17T02:47:43;99735.843750;;;0.460000;60.739258
77517;BME280;68414;53.946;27.634;2023-03-17T02:48:43;99738.984375;;;0.420000;60.745117
77517;BME280;68414;53.946;27.634;2023-03-17T02:49:43;99739.421875;;;0.460000;61.183594
77517;BME280;68414;53.946;27.634;2023-03-17T02:50:43;99739.437500;;;0.570000;60.607422
77517;BME280;68414;53.946;27.634;2023-03-17T02:51:43;99742.859375;;;0.720000;59.555664
77517;BME280;68414;53.946;27.634;2023-03-17T02:52:43;99744.703125;;;0.870000;59.215820
77517;BME280;68414;53.946;27.634;2023-03-17T02:53:43;99745.750000;;;0.970000;58.675781
77517;BME280;68414;53.946;27.634;2023-03-17T02:54:43;99743.359375;;;1.040000;58.569336
77517;BME280;68414;53.946;27.634;2023-03-17T02:55:43;99742.273438;;;1.100000;58.641602
77517;BME280;68414;53.946;27.634;2023-03-17T02:56:43;99743.625000;;;1.060000;58.550781
77517;BME280;68414;53.946;27.634;2023-03-17T02:57:43;99742.171875;;;1.040000;58.665039
77517;BME280;68414;53.946;27.634;2023-03-17T02:58:43;99742.046875;;;1.110000;58.302734
77517;BME280;68414;53.946;27.634;2023-03-17T02:59:43;99744.453125;;;1.010000;59.022461
77517;BME280;68414;53.946;27.634;2023-03-17T03:00:43;99745.781250;;;0.950000;59.480469
77517;BME280;68414;53.946;27.634;2023-03-17T03:01:43;99744.890625;;;0.760000;59.731445
77517;BME280;68414;53.946;27.634;2023-03-17T03:02:43;99741.484375;;;0.640000;60.339844
77517;BME280;68414;53.946;27.634;2023-03-17T03:03:43;99740.546875;;;0.610000;60.420898
77517;BME280;68414;53.946;27.634;2023-03-17T03:04:43;99742.281250;;;0.710000;60.487305
77517;BME280;68414;53.946;27.634;2023-03-17T03:05:43;99743.804688;;;0.630000;59.957031
77517;BME280;68414;53.946;27.634;2023-03-17T03:06:43;99737.437500;;;0.500000;60.097656
77517;BME280;68414;53.946;27.634;2023-03-17T03:07:42;99749.625000;;;0.400000;60.507812
77517;BME280;68414;53.946;27.634;2023-03-17T03:08:43;99742.554688;;;0.280000;60.767578
77517;BME280;68414;53.946;27.634;2023-03-17T03:09:43;99742.406250;;;0.190000;61.538086
77517;BME280;68414;53.946;27.634;2023-03-17T03:10:43;99743.671875;;;0.160000;61.523438
77517;BME280;68414;53.946;27.634;2023-03-17T03:11:43;99746.031250;;;0.140000;61.720703
77517;BME280;68414;53.946;27.634;2023-03-17T03:12:43;99742.359375;;;0.080000;61.871094
77517;BME280;68414;53.946;27.634;2023-03-17T03:13:42;99740.343750;;;0.070000;62.072266
77517;BME280;68414;53.946;27.634;2023-03-17T03:14:42;99743.890625;;;0.100000;62.764648
77517;BME280;68414;53.946;27.634;2023-03-17T03:15:42;99742.671875;;;0.070000;62.875977
77517;BME280;68414;53.946;27.634;2023-03-17T03:16:42;99743.718750;;;0.050000;62.789062
77517;BME280;68414;53.946;27.634;2023-03-17T03:17:42;99741.187500;;;0.150000;62.591797
77517;BME280;68414;53.946;27.634;2023-03-17T03:18:42;99743.937500;;;0.160000;62.541016
77517;BME280;68414;53.946;27.634;2023-03-17T03:19:42;99745.578125;;;0.220000;62.167969
77517;BME280;68414;53.946;27.634;2023-03-17T03:20:43;99747.468750;;;0.230000;61.799805
77517;BME280;68414;53.946;27.634;2023-03-17T03:21:43;99746.960938;;;0.230000;62.234375
77517;BME280;68414;53.946;27.634;2023-03-17T03:22:43;99746.289062;;;0.170000;62.636719
77517;BME280;68414;53.946;27.634;2023-03-17T03:23:42;99748.078125;;;0.230000;62.974609
77517;BME280;68414;53.946;27.634;2023-03-17T03:24:43;99745.296875;;;0.430000;62.335938
77517;BME280;68414;53.946;27.634;2023-03-17T03:25:42;99745.742188;;;0.650000;61.020508
77517;BME280;68414;53.946;27.634;2023-03-17T03:26:42;99748.328125;;;0.810000;60.002930
77517;BME280;68414;53.946;27.634;2023-03-17T03:27:42;99747.718750;;;0.770000;60.273438
77517;BME280;68414;53.946;27.634;2023-03-17T03:28:42;99745.390625;;;0.660000;60.841797
77517;BME280;68414;53.946;27.634;2023-03-17T03:29:42;99745.632812;;;0.440000;61.595703
77517;BME280;68414;53.946;27.634;2023-03-17T03:30:43;99749.890625;;;0.290000;61.604492
77517;BME280;68414;53.946;27.634;2023-03-17T03:31:42;99746.171875;;;0.260000;61.738281
77517;BME280;68414;53.946;27.634;2023-03-17T03:32:42;99748.015625;;;0.250000;62.003906
77517;BME280;68414;53.946;27.634;2023-03-17T03:33:43;99748.656250;;;0.180000;62.277344
77517;BME280;68414;53.946;27.634;2023-03-17T03:34:42;99750.406250;;;0.210000;62.261719
77517;BME280;68414;53.946;27.634;2023-03-17T03:35:42;99750.234375;;;0.140000;61.965820
77517;BME280;68414;53.946;27.634;2023-03-17T03:36:43;99754.351562;;;0.200000;61.921875
77517;BME280;68414;53.946;27.634;2023-03-17T03:37:42;99751.820312;;;0.120000;62.248047
77517;BME280;68414;53.946;27.634;2023-03-17T03:38:43;99752.820312;;;0.100000;62.235352
77517;BME280;68414;53.946;27.634;2023-03-17T03:39:42;99756.515625;;;0.060000;61.816406
77517;BME280;68414;53.946;27.634;2023-03-17T03:40:43;99755.140625;;;0.110000;62.001953
77517;BME280;68414;53.946;27.634;2023-03-17T03:41:42;99754.835938;;;0.140000;62.124023
77517;BME280;68414;53.946;27.634;2023-03-17T03:42:42;99759.164062;;;0.270000;61.464844
77517;BME280;68414;53.946;27.634;2023-03-17T03:43:42;99760.375000;;;0.220000;62.113281
77517;BME280;68414;53.946;27.634;2023-03-17T03:44:42;99760.328125;;;0.070000;62.686523
77517;BME280;68414;53.946;27.634;2023-03-17T03:45:42;99759.601562;;;0.130000;62.768555
77517;BME280;68414;53.946;27.634;2023-03-17T03:46:42;99762.101562;;;0.250000;62.298828
77517;BME280;68414;53.946;27.634;2023-03-17T03:47:43;99765.148438;;;0.320000;62.043945
77517;BME280;68414;53.946;27.634;2023-03-17T03:48:42;99765.140625;;;0.330000;62.141602
77517;BME280;68414;53.946;27.634;2023-03-17T03:49:42;99767.648438;;;0.400000;61.854492
77517;BME280;68414;53.946;27.634;2023-03-17T03:50:42;99764.804688;;;0.580000;60.809570
77517;BME280;68414;53.946;27.634;2023-03-17T03:51:42;99764.828125;;;0.750000;60.154297
77517;BME280;68414;53.946;27.634;2023-03-17T03:52:42;99770.484375;;;0.890000;59.483398
77517;BME280;68414;53.946;27.634;2023-03-17T03:53:42;99770.109375;;;0.990000;59.166992
77517;BME280;68414;53.946;27.634;2023-03-17T03:54:43;99770.843750;;;1.070000;58.701172
77517;BME280;68414;53.946;27.634;2023-03-17T03:55:42;99772.750000;;;1.110000;58.685547
77517;BME280;68414;53.946;27.634;2023-03-17T03:56:42;99773.734375;;;1.160000;58.361328
77517;BME280;68414;53.946;27.634;2023-03-17T03:57:42;99773.671875;;;1.180000;58.705078
77517;BME280;68414;53.946;27.634;2023-03-17T03:58:42;99772.453125;;;1.220000;58.274414
77517;BME280;68414;53.946;27.634;2023-03-17T03:59:42;99774.625000;;;1.270000;58.238281
77517;BME280;68414;53.946;27.634;2023-03-17T04:00:42;99772.265625;;;1.320000;57.957031
77517;BME280;68414;53.946;27.634;2023-03-17T04:01:42;99773.304688;;;1.310000;57.723633
77517;BME280;68414;53.946;27.634;2023-03-17T04:02:43;99772.312500;;;1.330000;57.683594
77517;BME280;68414;53.946;27.634;2023-03-17T04:03:42;99774.289062;;;1.350000;57.591797
77517;BME280;68414;53.946;27.634;2023-03-17T04:04:43;99775.960938;;;1.380000;57.531250
77517;BME280;68414;53.946;27.634;2023-03-17T04:05:42;99774.820312;;;1.410000;57.267578
77517;BME280;68414;53.946;27.634;2023-03-17T04:06:42;99772.742188;;;1.430000;57.197266
77517;BME280;68414;53.946;27.634;2023-03-17T04:07:43;99771.468750;;;1.440000;57.155273
77517;BME280;68414;53.946;27.634;2023-03-17T04:08:42;99773.671875;;;1.460000;56.912109
77517;BME280;68414;53.946;27.634;2023-03-17T04:09:42;99773.218750;;;1.500000;56.875977
77517;BME280;68414;53.946;27.634;2023-03-17T04:10:42;99769.687500;;;1.520000;56.920898
77517;BME280;68414;53.946;27.634;2023-03-17T04:11:42;99772.718750;;;1.430000;57.345703
77517;BME280;68414;53.946;27.634;2023-03-17T04:12:42;99775.453125;;;1.450000;57.252930
77517;BME280;68414;53.946;27.634;2023-03-17T04:13:42;99776.500000;;;1.290000;58.050781
77517;BME280;68414;53.946;27.634;2023-03-17T04:14:43;99776.171875;;;1.130000;58.879883
77517;BME280;68414;53.946;27.634;2023-03-17T04:15:42;99778.250000;;;1.080000;58.924805
77517;BME280;68414;53.946;27.634;2023-03-17T04:16:42;99777.140625;;;0.960000;59.589844
77517;BME280;68414;53.946;27.634;2023-03-17T04:17:43;99775.578125;;;0.880000;59.429688
77517;BME280;68414;53.946;27.634;2023-03-17T04:18:42;99779.359375;;;0.760000;59.877930
77517;BME280;68414;53.946;27.634;2023-03-17T04:19:42;99780.515625;;;0.610000;60.006836
77517;BME280;68414;53.946;27.634;2023-03-17T04:20:43;99782.867188;;;0.480000;60.528320
77517;BME280;68414;53.946;27.634;2023-03-17T04:21:42;99783.437500;;;0.330000;60.742188
77517;BME280;68414;53.946;27.634;2023-03-17T04:22:42;99783.812500;;;0.230000;61.448242
77517;BME280;68414;53.946;27.634;2023-03-17T04:23:43;99786.250000;;;0.180000;61.833008
77517;BME280;68414;53.946;27.634;2023-03-17T04:24:42;99784.390625;;;0.170000;61.968750
77517;BME280;68414;53.946;27.634;2023-03-17T04:25:42;99788.148438;;;0.150000;61.860352
77517;BME280;68414;53.946;27.634;2023-03-17T04:26:42;99791.156250;;;0.310000;62.075195
77517;BME280;68414;53.946;27.634;2023-03-17T04:27:42;99789.250000;;;0.440000;61.669922
77517;BME280;68414;53.946;27.634;2023-03-17T04:28:42;99793.125000;;;0.420000;61.475586
77517;BME280;68414;53.946;27.634;2023-03-17T04:29:42;99788.312500;;;0.350000;61.561523
77517;BME280;68414;53.946;27.634;2023-03-17T04:30:42;99790.406250;;;0.390000;61.566406
77517;BME280;68414;53.946;27.634;2023-03-17T04:31:42;99793.078125;;;0.430000;62.166016
77517;BME280;68414;53.946;27.634;2023-03-17T04:32:43;99794.437500;;;0.630000;60.963867
77517;BME280;68414;53.946;27.634;2023-03-17T04:33:43;99794.281250;;;0.740000;60.438477
77517;BME280;68414;53.946;27.634;2023-03-17T04:34:42;99797.734375;;;0.740000;60.450195
77517;BME280;68414;53.946;27.634;2023-03-17T04:35:42;99796.234375;;;0.830000;60.302734
77517;BME280;68414;53.946;27.634;2023-03-17T04:36:43;99801.187500;;;0.720000;60.807617
77517;BME280;68414;53.946;27.634;2023-03-17T04:37:43;99799.625000;;;0.620000;61.005859
77517;BME280;68414;53.946;27.634;2023-03-17T04:38:42;99798.039062;;;0.650000;61.498047